sensor_id;sensor_type;location;lat;lon;timestamp;P1;durP1;ratioP1;P2;durP2;ratioP2
22468;SDS011;11401;50.792;4.352;2023-02-15T00:01:53;34.33;;;20.63;;
22468;SDS011;11401;50.792;4.352;2023-02-15T00:04:22;28.15;;;20.35;;
22468;SDS011;11401;50.792;4.352;2023-02-15T00:06:50;28.85;;;19.35;;
22468;SDS011;11401;50.792;4.352;2023-02-15T00:09:17;30.45;;;19.92;;
22468;SDS011;11401;50.792;4.352;2023-02-15T00:11:44;29.92;;;20.00;;
22468;SDS011;11401;50.792;4.352;2023-02-15T00:14:18;33.38;;;19.98;;
22468;SDS011;11401;50.792;4.352;2023-02-15T00:16:46;34.22;;;19.80;;
22468;SDS011;11401;50.792;4.352;2023-02-15T00:19:15;29.08;;;18.40;;
22468;SDS011;11401;50.792;4.352;2023-02-15T00:21:43;26.25;;;18.55;;
22468;SDS011;11401;50.792;4.352;2023-02-15T00:24:12;30.35;;;18.83;;
22468;SDS011;11401;50.792;4.352;2023-02-15T00:26:41;29.63;;;18.77;;
22468;SDS011;11401;50.792;4.352;2023-02-15T00:29:09;31.10;;;19.35;;
22468;SDS011;11401;50.792;4.352;2023-02-15T00:31:37;27.40;;;18.10;;
22468;SDS011;11401;50.792;4.352;2023-02-15T00:34:11;30.90;;;18.80;;
22468;SDS011;11401;50.792;4.352;2023-02-15T00:36:41;30.40;;;19.58;;
22468;SDS011;11401;50.792;4.352;2023-02-15T00:39:08;28.17;;;17.75;;
22468;SDS011;11401;50.792;4.352;2023-02-15T00:41:36;31.13;;;19.55;;
22468;SDS011;11401;50.792;4.352;2023-02-15T00:44:03;31.88;;;19.25;;
22468;SDS011;11401;50.792;4.352;2023-02-15T00:46:31;28.90;;;18.20;;
22468;SDS011;11401;50.792;4.352;2023-02-15T00:48:58;33.47;;;19.95;;
22468;SDS011;11401;50.792;4.352;2023-02-15T00:51:25;29.38;;;19.70;;
22468;SDS011;11401;50.792;4.352;2023-02-15T00:53:52;29.25;;;18.27;;
22468;SDS011;11401;50.792;4.352;2023-02-15T00:56:19;30.35;;;19.00;;
22468;SDS011;11401;50.792;4.352;2023-02-15T00:58:46;30.52;;;19.35;;
22468;SDS011;11401;50.792;4.352;2023-02-15T01:01:14;30.00;;;20.27;;
22468;SDS011;11401;50.792;4.352;2023-02-15T01:03:43;35.00;;;19.88;;
22468;SDS011;11401;50.792;4.352;2023-02-15T01:06:12;30.80;;;19.25;;
22468;SDS011;11401;50.792;4.352;2023-02-15T01:08:42;29.50;;;18.88;;
22468;SDS011;11401;50.792;4.352;2023-02-15T01:11:14;36.30;;;20.73;;
22468;SDS011;11401;50.792;4.352;2023-02-15T01:13:51;29.77;;;19.48;;
22468;SDS011;11401;50.792;4.352;2023-02-15T01:16:20;28.23;;;17.88;;
22468;SDS011;11401;50.792;4.352;2023-02-15T01:18:47;31.08;;;19.25;;
22468;SDS011;11401;50.792;4.352;2023-02-15T01:21:18;30.05;;;19.33;;
22468;SDS011;11401;50.792;4.352;2023-02-15T01:23:47;30.95;;;18.27;;
22468;SDS011;11401;50.792;4.352;2023-02-15T01:26:15;34.13;;;19.38;;
22468;SDS011;11401;50.792;4.352;2023-02-15T01:28:43;32.95;;;19.63;;
22468;SDS011;11401;50.792;4.352;2023-02-15T01:31:14;32.92;;;19.58;;
22468;SDS011;11401;50.792;4.352;2023-02-15T01:33:44;30.65;;;19.20;;
22468;SDS011;11401;50.792;4.352;2023-02-15T01:36:12;30.40;;;19.27;;
22468;SDS011;11401;50.792;4.352;2023-02-15T01:38:40;32.72;;;18.65;;
22468;SDS011;11401;50.792;4.352;2023-02-15T01:41:08;34.58;;;20.02;;
22468;SDS011;11401;50.792;4.352;2023-02-15T01:43:50;31.48;;;19.50;;
22468;SDS011;11401;50.792;4.352;2023-02-15T01:46:27;35.63;;;19.50;;
22468;SDS011;11401;50.792;4.352;2023-02-15T01:49:10;34.58;;;19.92;;
22468;SDS011;11401;50.792;4.352;2023-02-15T01:51:41;28.92;;;19.10;;
22468;SDS011;11401;50.792;4.352;2023-02-15T01:56:54;28.67;;;17.55;;
22468;SDS011;11401;50.792;4.352;2023-02-15T01:59:24;29.13;;;18.05;;
22468;SDS011;11401;50.792;4.352;2023-02-15T02:01:52;31.83;;;17.90;;
22468;SDS011;11401;50.792;4.352;2023-02-15T02:04:31;29.30;;;18.50;;
22468;SDS011;11401;50.792;4.352;2023-02-15T02:07:03;30.92;;;18.48;;
22468;SDS011;11401;50.792;4.352;2023-02-15T02:09:32;39.13;;;20.02;;
22468;SDS011;11401;50.792;4.352;2023-02-15T02:11:59;31.80;;;18.52;;
22468;SDS011;11401;50.792;4.352;2023-02-15T02:14:27;32.25;;;19.40;;
22468;SDS011;11401;50.792;4.352;2023-02-15T02:17:03;33.45;;;19.58;;
22468;SDS011;11401;50.792;4.352;2023-02-15T02:33:45;30.17;;;18.00;;
22468;SDS011;11401;50.792;4.352;2023-02-15T02:39:49;28.60;;;18.10;;
22468;SDS011;11401;50.792;4.352;2023-02-15T02:42:44;29.80;;;17.60;;
22468;SDS011;11401;50.792;4.352;2023-02-15T02:45:34;30.83;;;18.88;;
22468;SDS011;11401;50.792;4.352;2023-02-15T02:48:15;30.63;;;18.23;;
22468;SDS011;11401;50.792;4.352;2023-02-15T02:50:48;28.85;;;18.67;;
22468;SDS011;11401;50.792;4.352;2023-02-15T02:53:15;30.75;;;17.88;;
22468;SDS011;11401;50.792;4.352;2023-02-15T02:59:00;30.73;;;18.05;;
22468;SDS011;11401;50.792;4.352;2023-02-15T03:04:56;29.90;;;18.38;;
22468;SDS011;11401;50.792;4.352;2023-02-15T03:07:29;25.25;;;16.77;;
22468;SDS011;11401;50.792;4.352;2023-02-15T03:10:00;27.10;;;16.75;;
22468;SDS011;11401;50.792;4.352;2023-02-15T03:12:31;25.92;;;17.23;;
22468;SDS011;11401;50.792;4.352;2023-02-15T03:15:05;31.05;;;18.20;;
22468;SDS011;11401;50.792;4.352;2023-02-15T03:17:36;29.90;;;18.83;;
22468;SDS011;11401;50.792;4.352;2023-02-15T03:20:27;28.88;;;17.98;;
22468;SDS011;11401;50.792;4.352;2023-02-15T03:23:01;29.92;;;18.27;;
22468;SDS011;11401;50.792;4.352;2023-02-15T03:25:46;29.17;;;16.70;;
22468;SDS011;11401;50.792;4.352;2023-02-15T03:28:25;28.73;;;18.35;;
22468;SDS011;11401;50.792;4.352;2023-02-15T03:31:02;27.02;;;17.83;;
22468;SDS011;11401;50.792;4.352;2023-02-15T03:33:32;33.95;;;18.77;;
22468;SDS011;11401;50.792;4.352;2023-02-15T03:36:05;24.17;;;16.42;;
22468;SDS011;11401;50.792;4.352;2023-02-15T03:39:13;27.20;;;16.90;;
22468;SDS011;11401;50.792;4.352;2023-02-15T03:41:55;23.17;;;16.95;;
22468;SDS011;11401;50.792;4.352;2023-02-15T03:47:26;27.30;;;17.27;;
22468;SDS011;11401;50.792;4.352;2023-02-15T03:50:21;25.45;;;18.00;;
22468;SDS011;11401;50.792;4.352;2023-02-15T03:53:20;26.40;;;17.20;;
22468;SDS011;11401;50.792;4.352;2023-02-15T03:55:49;29.08;;;17.63;;
22468;SDS011;11401;50.792;4.352;2023-02-15T03:58:19;28.05;;;18.65;;
22468;SDS011;11401;50.792;4.352;2023-02-15T04:01:09;25.40;;;16.98;;
22468;SDS011;11401;50.792;4.352;2023-02-15T04:04:05;27.02;;;17.40;;
22468;SDS011;11401;50.792;4.352;2023-02-15T04:06:36;24.30;;;17.35;;
22468;SDS011;11401;50.792;4.352;2023-02-15T04:09:03;30.02;;;16.77;;
22468;SDS011;11401;50.792;4.352;2023-02-15T04:11:49;24.50;;;16.95;;
22468;SDS011;11401;50.792;4.352;2023-02-15T04:14:16;29.98;;;17.85;;
22468;SDS011;11401;50.792;4.352;2023-02-15T04:17:04;28.13;;;16.50;;
22468;SDS011;11401;50.792;4.352;2023-02-15T04:19:32;27.70;;;18.10;;
22468;SDS011;11401;50.792;4.352;2023-02-15T04:22:18;27.42;;;17.67;;
22468;SDS011;11401;50.792;4.352;2023-02-15T04:25:03;27.52;;;18.38;;
22468;SDS011;11401;50.792;4.352;2023-02-15T04:27:47;26.23;;;17.40;;
22468;SDS011;11401;50.792;4.352;2023-02-15T04:30:20;28.80;;;17.10;;
22468;SDS011;11401;50.792;4.352;2023-02-15T04:32:49;27.20;;;17.15;;
22468;SDS011;11401;50.792;4.352;2023-02-15T04:35:17;28.75;;;18.83;;
22468;SDS011;11401;50.792;4.352;2023-02-15T04:37:44;28.10;;;18.35;;
22468;SDS011;11401;50.792;4.352;2023-02-15T04:40:15;24.75;;;18.00;;
22468;SDS011;11401;50.792;4.352;2023-02-15T04:42:46;23.92;;;16.42;;
22468;SDS011;11401;50.792;4.352;2023-02-15T04:45:15;28.65;;;16.35;;
22468;SDS011;11401;50.792;4.352;2023-02-15T04:47:43;28.25;;;18.27;;
22468;SDS011;11401;50.792;4.352;2023-02-15T04:50:10;26.40;;;18.95;;
22468;SDS011;11401;50.792;4.352;2023-02-15T04:52:38;27.88;;;18.17;;
22468;SDS011;11401;50.792;4.352;2023-02-15T04:55:05;28.38;;;17.45;;
22468;SDS011;11401;50.792;4.352;2023-02-15T04:57:32;27.45;;;17.30;;
22468;SDS011;11401;50.792;4.352;2023-02-15T04:59:59;26.60;;;17.17;;
22468;SDS011;11401;50.792;4.352;2023-02-15T05:02:26;26.27;;;18.08;;
22468;SDS011;11401;50.792;4.352;2023-02-15T05:04:53;28.73;;;17.17;;
22468;SDS011;11401;50.792;4.352;2023-02-15T05:07:20;30.45;;;17.17;;
22468;SDS011;11401;50.792;4.352;2023-02-15T05:09:47;27.95;;;17.27;;
22468;SDS011;11401;50.792;4.352;2023-02-15T05:12:14;29.02;;;17.90;;
22468;SDS011;11401;50.792;4.352;2023-02-15T05:14:41;28.45;;;16.95;;
22468;SDS011;11401;50.792;4.352;2023-02-15T05:17:08;28.75;;;17.67;;
22468;SDS011;11401;50.792;4.352;2023-02-15T05:19:35;29.60;;;18.85;;
22468;SDS011;11401;50.792;4.352;2023-02-15T05:22:02;30.92;;;17.63;;
22468;SDS011;11401;50.792;4.352;2023-02-15T05:24:29;28.63;;;18.40;;
22468;SDS011;11401;50.792;4.352;2023-02-15T05:27:14;30.05;;;17.08;;
22468;SDS011;11401;50.792;4.352;2023-02-15T05:30:00;29.25;;;17.98;;
22468;SDS011;11401;50.792;4.352;2023-02-15T05:32:28;28.55;;;19.13;;
22468;SDS011;11401;50.792;4.352;2023-02-15T05:34:55;32.97;;;17.33;;
22468;SDS011;11401;50.792;4.352;2023-02-15T05:37:22;25.23;;;17.27;;
22468;SDS011;11401;50.792;4.352;2023-02-15T05:39:49;27.65;;;17.73;;
22468;SDS011;11401;50.792;4.352;2023-02-15T05:42:16;30.38;;;19.50;;
22468;SDS011;11401;50.792;4.352;2023-02-15T05:44:43;26.35;;;17.50;;
22468;SDS011;11401;50.792;4.352;2023-02-15T05:47:10;29.85;;;18.65;;
22468;SDS011;11401;50.792;4.352;2023-02-15T05:49:37;32.40;;;18.85;;
22468;SDS011;11401;50.792;4.352;2023-02-15T05:52:04;26.90;;;17.55;;
22468;SDS011;11401;50.792;4.352;2023-02-15T05:54:31;30.30;;;18.45;;
22468;SDS011;11401;50.792;4.352;2023-02-15T05:56:58;30.10;;;18.38;;
22468;SDS011;11401;50.792;4.352;2023-02-15T05:59:25;30.30;;;19.42;;
22468;SDS011;11401;50.792;4.352;2023-02-15T06:01:52;30.60;;;18.50;;
22468;SDS011;11401;50.792;4.352;2023-02-15T06:04:20;33.03;;;18.17;;
22468;SDS011;11401;50.792;4.352;2023-02-15T06:06:47;30.00;;;18.92;;
22468;SDS011;11401;50.792;4.352;2023-02-15T06:09:14;30.30;;;18.33;;
22468;SDS011;11401;50.792;4.352;2023-02-15T06:11:44;26.25;;;17.60;;
22468;SDS011;11401;50.792;4.352;2023-02-15T06:14:12;30.35;;;18.67;;
22468;SDS011;11401;50.792;4.352;2023-02-15T06:16:39;30.08;;;18.42;;
22468;SDS011;11401;50.792;4.352;2023-02-15T06:19:06;31.38;;;17.92;;
22468;SDS011;11401;50.792;4.352;2023-02-15T06:21:33;28.42;;;17.88;;
22468;SDS011;11401;50.792;4.352;2023-02-15T06:24:05;30.73;;;18.48;;
22468;SDS011;11401;50.792;4.352;2023-02-15T06:26:32;38.42;;;18.63;;
22468;SDS011;11401;50.792;4.352;2023-02-15T06:28:59;33.13;;;18.48;;
22468;SDS011;11401;50.792;4.352;2023-02-15T06:31:27;29.85;;;17.80;;
22468;SDS011;11401;50.792;4.352;2023-02-15T06:33:54;33.65;;;19.20;;
22468;SDS011;11401;50.792;4.352;2023-02-15T06:36:30;33.28;;;19.38;;
22468;SDS011;11401;50.792;4.352;2023-02-15T06:38:57;33.65;;;19.05;;
22468;SDS011;11401;50.792;4.352;2023-02-15T06:41:25;44.22;;;19.42;;
22468;SDS011;11401;50.792;4.352;2023-02-15T06:43:52;32.40;;;18.85;;
22468;SDS011;11401;50.792;4.352;2023-02-15T06:46:19;32.35;;;19.02;;
22468;SDS011;11401;50.792;4.352;2023-02-15T06:48:46;40.80;;;19.73;;
22468;SDS011;11401;50.792;4.352;2023-02-15T06:51:13;30.48;;;18.60;;
22468;SDS011;11401;50.792;4.352;2023-02-15T06:53:40;48.95;;;21.15;;
22468;SDS011;11401;50.792;4.352;2023-02-15T06:56:09;41.63;;;18.92;;
22468;SDS011;11401;50.792;4.352;2023-02-15T06:58:40;37.45;;;18.70;;
22468;SDS011;11401;50.792;4.352;2023-02-15T07:01:08;34.92;;;19.23;;
22468;SDS011;11401;50.792;4.352;2023-02-15T07:03:36;31.60;;;19.60;;
22468;SDS011;11401;50.792;4.352;2023-02-15T07:06:03;41.88;;;20.80;;
22468;SDS011;11401;50.792;4.352;2023-02-15T07:08:34;30.05;;;17.38;;
22468;SDS011;11401;50.792;4.352;2023-02-15T07:11:02;35.38;;;18.08;;
22468;SDS011;11401;50.792;4.352;2023-02-15T07:13:50;44.22;;;19.50;;
22468;SDS011;11401;50.792;4.352;2023-02-15T07:16:19;31.63;;;19.27;;
22468;SDS011;11401;50.792;4.352;2023-02-15T07:18:46;33.88;;;19.27;;
22468;SDS011;11401;50.792;4.352;2023-02-15T07:21:13;34.08;;;18.77;;
22468;SDS011;11401;50.792;4.352;2023-02-15T07:23:40;33.47;;;19.70;;
22468;SDS011;11401;50.792;4.352;2023-02-15T07:26:07;32.70;;;17.17;;
22468;SDS011;11401;50.792;4.352;2023-02-15T07:28:34;44.05;;;18.83;;
22468;SDS011;11401;50.792;4.352;2023-02-15T07:31:02;37.25;;;19.73;;
22468;SDS011;11401;50.792;4.352;2023-02-15T07:33:31;38.90;;;19.73;;
22468;SDS011;11401;50.792;4.352;2023-02-15T07:36:00;35.03;;;19.70;;
22468;SDS011;11401;50.792;4.352;2023-02-15T07:38:35;36.78;;;19.45;;
22468;SDS011;11401;50.792;4.352;2023-02-15T07:41:05;36.35;;;20.15;;
22468;SDS011;11401;50.792;4.352;2023-02-15T07:43:34;34.47;;;18.27;;
22468;SDS011;11401;50.792;4.352;2023-02-15T07:46:03;33.10;;;18.85;;
22468;SDS011;11401;50.792;4.352;2023-02-15T07:48:34;35.72;;;18.52;;
22468;SDS011;11401;50.792;4.352;2023-02-15T07:51:03;39.28;;;19.75;;
22468;SDS011;11401;50.792;4.352;2023-02-15T07:53:31;32.67;;;19.23;;
22468;SDS011;11401;50.792;4.352;2023-02-15T07:55:59;34.10;;;19.50;;
22468;SDS011;11401;50.792;4.352;2023-02-15T07:58:28;31.75;;;19.90;;
22468;SDS011;11401;50.792;4.352;2023-02-15T08:01:13;30.25;;;18.25;;
22468;SDS011;11401;50.792;4.352;2023-02-15T08:03:41;32.13;;;19.25;;
22468;SDS011;11401;50.792;4.352;2023-02-15T08:06:08;44.03;;;20.65;;
22468;SDS011;11401;50.792;4.352;2023-02-15T08:08:37;40.42;;;21.38;;
22468;SDS011;11401;50.792;4.352;2023-02-15T08:13:55;39.72;;;20.70;;
22468;SDS011;11401;50.792;4.352;2023-02-15T08:21:48;38.65;;;20.85;;
22468;SDS011;11401;50.792;4.352;2023-02-15T08:24:18;43.13;;;18.77;;
22468;SDS011;11401;50.792;4.352;2023-02-15T08:26:47;33.97;;;19.60;;
22468;SDS011;11401;50.792;4.352;2023-02-15T08:29:15;38.85;;;20.77;;
22468;SDS011;11401;50.792;4.352;2023-02-15T08:31:46;39.35;;;19.95;;
22468;SDS011;11401;50.792;4.352;2023-02-15T08:34:18;35.55;;;19.15;;
22468;SDS011;11401;50.792;4.352;2023-02-15T08:36:45;33.47;;;19.73;;
22468;SDS011;11401;50.792;4.352;2023-02-15T08:39:13;42.92;;;22.67;;
22468;SDS011;11401;50.792;4.352;2023-02-15T08:41:42;38.70;;;21.77;;
22468;SDS011;11401;50.792;4.352;2023-02-15T08:44:10;33.08;;;20.92;;
22468;SDS011;11401;50.792;4.352;2023-02-15T08:46:39;49.28;;;22.08;;
22468;SDS011;11401;50.792;4.352;2023-02-15T08:49:08;35.33;;;20.70;;
22468;SDS011;11401;50.792;4.352;2023-02-15T08:51:37;35.78;;;18.60;;
22468;SDS011;11401;50.792;4.352;2023-02-15T08:54:06;32.03;;;19.38;;
22468;SDS011;11401;50.792;4.352;2023-02-15T08:56:36;33.22;;;18.58;;
22468;SDS011;11401;50.792;4.352;2023-02-15T08:59:04;28.02;;;17.92;;
22468;SDS011;11401;50.792;4.352;2023-02-15T09:01:33;32.05;;;18.75;;
22468;SDS011;11401;50.792;4.352;2023-02-15T09:04:02;31.50;;;17.67;;
22468;SDS011;11401;50.792;4.352;2023-02-15T09:06:32;31.63;;;19.42;;
22468;SDS011;11401;50.792;4.352;2023-02-15T09:08:59;27.90;;;16.83;;
22468;SDS011;11401;50.792;4.352;2023-02-15T09:11:27;31.70;;;17.55;;
22468;SDS011;11401;50.792;4.352;2023-02-15T09:13:59;29.48;;;19.15;;
22468;SDS011;11401;50.792;4.352;2023-02-15T09:16:28;36.80;;;18.35;;
22468;SDS011;11401;50.792;4.352;2023-02-15T09:18:57;29.27;;;17.95;;
22468;SDS011;11401;50.792;4.352;2023-02-15T09:21:25;27.23;;;17.48;;
22468;SDS011;11401;50.792;4.352;2023-02-15T09:23:57;32.92;;;17.30;;
22468;SDS011;11401;50.792;4.352;2023-02-15T09:26:29;29.15;;;17.48;;
22468;SDS011;11401;50.792;4.352;2023-02-15T09:28:58;31.85;;;17.98;;
22468;SDS011;11401;50.792;4.352;2023-02-15T09:31:28;25.45;;;15.77;;
22468;SDS011;11401;50.792;4.352;2023-02-15T09:33:58;28.83;;;17.65;;
22468;SDS011;11401;50.792;4.352;2023-02-15T09:36:31;29.25;;;17.00;;
22468;SDS011;11401;50.792;4.352;2023-02-15T09:39:10;25.50;;;15.27;;
22468;SDS011;11401;50.792;4.352;2023-02-15T09:50:03;29.08;;;17.77;;
22468;SDS011;11401;50.792;4.352;2023-02-15T09:53:00;24.63;;;15.40;;
22468;SDS011;11401;50.792;4.352;2023-02-15T10:01:18;25.92;;;15.13;;
22468;SDS011;11401;50.792;4.352;2023-02-15T10:07:06;32.65;;;19.20;;
22468;SDS011;11401;50.792;4.352;2023-02-15T10:09:44;23.10;;;14.57;;
22468;SDS011;11401;50.792;4.352;2023-02-15T10:12:32;28.00;;;17.20;;
22468;SDS011;11401;50.792;4.352;2023-02-15T10:18:13;30.70;;;16.00;;
22468;SDS011;11401;50.792;4.352;2023-02-15T10:28:53;22.98;;;15.10;;
22468;SDS011;11401;50.792;4.352;2023-02-15T10:34:09;30.88;;;15.52;;
22468;SDS011;11401;50.792;4.352;2023-02-15T10:56:49;22.95;;;14.27;;
22468;SDS011;11401;50.792;4.352;2023-02-15T11:02:37;22.73;;;14.50;;
22468;SDS011;11401;50.792;4.352;2023-02-15T11:08:22;18.83;;;13.07;;
22468;SDS011;11401;50.792;4.352;2023-02-15T11:10:53;30.48;;;17.48;;
22468;SDS011;11401;50.792;4.352;2023-02-15T11:13:24;26.20;;;15.60;;
22468;SDS011;11401;50.792;4.352;2023-02-15T11:15:59;27.27;;;16.60;;
22468;SDS011;11401;50.792;4.352;2023-02-15T11:18:33;29.63;;;16.27;;
22468;SDS011;11401;50.792;4.352;2023-02-15T11:21:02;28.38;;;16.60;;
22468;SDS011;11401;50.792;4.352;2023-02-15T11:23:30;24.23;;;13.63;;
22468;SDS011;11401;50.792;4.352;2023-02-15T11:26:04;23.67;;;13.35;;
22468;SDS011;11401;50.792;4.352;2023-02-15T11:28:49;24.00;;;13.50;;
22468;SDS011;11401;50.792;4.352;2023-02-15T11:31:32;25.80;;;16.02;;
22468;SDS011;11401;50.792;4.352;2023-02-15T11:34:18;28.02;;;15.35;;
22468;SDS011;11401;50.792;4.352;2023-02-15T11:37:00;24.05;;;14.45;;
22468;SDS011;11401;50.792;4.352;2023-02-15T11:39:33;19.33;;;12.65;;
22468;SDS011;11401;50.792;4.352;2023-02-15T11:42:10;22.63;;;14.32;;
22468;SDS011;11401;50.792;4.352;2023-02-15T11:44:43;25.85;;;15.30;;
22468;SDS011;11401;50.792;4.352;2023-02-15T11:47:33;25.15;;;14.80;;
22468;SDS011;11401;50.792;4.352;2023-02-15T11:50:00;24.55;;;14.85;;
22468;SDS011;11401;50.792;4.352;2023-02-15T11:52:27;27.40;;;16.00;;
22468;SDS011;11401;50.792;4.352;2023-02-15T11:54:54;29.88;;;15.95;;
22468;SDS011;11401;50.792;4.352;2023-02-15T11:57:36;28.73;;;15.90;;
22468;SDS011;11401;50.792;4.352;2023-02-15T12:00:14;23.35;;;14.52;;
22468;SDS011;11401;50.792;4.352;2023-02-15T12:02:44;25.40;;;15.75;;
22468;SDS011;11401;50.792;4.352;2023-02-15T12:05:19;22.63;;;13.90;;
22468;SDS011;11401;50.792;4.352;2023-02-15T12:07:52;32.25;;;18.08;;
22468;SDS011;11401;50.792;4.352;2023-02-15T12:10:32;22.40;;;13.60;;
22468;SDS011;11401;50.792;4.352;2023-02-15T12:15:36;23.83;;;14.25;;
22468;SDS011;11401;50.792;4.352;2023-02-15T12:18:04;21.95;;;12.85;;
22468;SDS011;11401;50.792;4.352;2023-02-15T12:20:32;28.90;;;17.65;;
22468;SDS011;11401;50.792;4.352;2023-02-15T12:23:02;27.50;;;16.77;;
22468;SDS011;11401;50.792;4.352;2023-02-15T12:30:51;32.47;;;19.33;;
22468;SDS011;11401;50.792;4.352;2023-02-15T12:33:34;26.30;;;17.48;;
22468;SDS011;11401;50.792;4.352;2023-02-15T12:38:43;34.55;;;18.15;;
22468;SDS011;11401;50.792;4.352;2023-02-15T12:41:26;28.75;;;15.95;;
22468;SDS011;11401;50.792;4.352;2023-02-15T12:44:04;23.65;;;16.42;;
22468;SDS011;11401;50.792;4.352;2023-02-15T12:49:31;30.05;;;17.65;;
22468;SDS011;11401;50.792;4.352;2023-02-15T12:52:04;32.30;;;19.58;;
22468;SDS011;11401;50.792;4.352;2023-02-15T12:54:50;27.88;;;16.45;;
22468;SDS011;11401;50.792;4.352;2023-02-15T13:00:02;25.10;;;15.55;;
22468;SDS011;11401;50.792;4.352;2023-02-15T13:02:36;33.63;;;18.95;;
22468;SDS011;11401;50.792;4.352;2023-02-15T13:07:54;19.13;;;12.10;;
22468;SDS011;11401;50.792;4.352;2023-02-15T13:10:28;31.77;;;17.02;;
22468;SDS011;11401;50.792;4.352;2023-02-15T13:13:00;18.65;;;11.73;;
22468;SDS011;11401;50.792;4.352;2023-02-15T13:18:02;22.15;;;14.88;;
22468;SDS011;11401;50.792;4.352;2023-02-15T13:20:32;31.27;;;20.08;;
22468;SDS011;11401;50.792;4.352;2023-02-15T13:23:08;32.58;;;19.55;;
22468;SDS011;11401;50.792;4.352;2023-02-15T13:25:51;22.17;;;14.10;;
22468;SDS011;11401;50.792;4.352;2023-02-15T13:28:19;29.25;;;17.65;;
22468;SDS011;11401;50.792;4.352;2023-02-15T13:30:48;26.08;;;16.08;;
22468;SDS011;11401;50.792;4.352;2023-02-15T13:33:19;21.65;;;14.25;;
22468;SDS011;11401;50.792;4.352;2023-02-15T13:36:09;16.30;;;11.85;;
22468;SDS011;11401;50.792;4.352;2023-02-15T13:52:21;16.27;;;11.90;;
22468;SDS011;11401;50.792;4.352;2023-02-15T13:55:06;32.10;;;19.35;;
22468;SDS011;11401;50.792;4.352;2023-02-15T13:58:26;34.08;;;20.77;;
22468;SDS011;11401;50.792;4.352;2023-02-15T14:06:50;31.10;;;20.02;;
22468;SDS011;11401;50.792;4.352;2023-02-15T14:26:04;30.05;;;18.20;;
22468;SDS011;11401;50.792;4.352;2023-02-15T14:28:51;22.13;;;13.70;;
22468;SDS011;11401;50.792;4.352;2023-02-15T14:31:33;25.30;;;16.73;;
22468;SDS011;11401;50.792;4.352;2023-02-15T14:34:04;35.22;;;19.38;;
22468;SDS011;11401;50.792;4.352;2023-02-15T14:36:31;33.45;;;21.15;;
22468;SDS011;11401;50.792;4.352;2023-02-15T14:39:02;28.40;;;18.60;;
22468;SDS011;11401;50.792;4.352;2023-02-15T14:42:11;17.92;;;12.32;;
22468;SDS011;11401;50.792;4.352;2023-02-15T14:44:57;19.60;;;13.68;;
22468;SDS011;11401;50.792;4.352;2023-02-15T14:47:51;27.60;;;18.73;;
22468;SDS011;11401;50.792;4.352;2023-02-15T14:50:51;32.40;;;20.48;;
22468;SDS011;11401;50.792;4.352;2023-02-15T14:56:06;20.80;;;14.73;;
22468;SDS011;11401;50.792;4.352;2023-02-15T14:58:36;18.15;;;13.32;;
22468;SDS011;11401;50.792;4.352;2023-02-15T15:01:09;35.05;;;21.45;;
22468;SDS011;11401;50.792;4.352;2023-02-15T15:03:50;28.90;;;17.35;;
22468;SDS011;11401;50.792;4.352;2023-02-15T15:06:24;26.58;;;17.45;;
22468;SDS011;11401;50.792;4.352;2023-02-15T15:09:40;34.53;;;24.02;;
22468;SDS011;11401;50.792;4.352;2023-02-15T15:12:12;26.95;;;18.05;;
22468;SDS011;11401;50.792;4.352;2023-02-15T15:14:49;27.00;;;19.67;;
22468;SDS011;11401;50.792;4.352;2023-02-15T15:22:41;26.85;;;16.20;;
22468;SDS011;11401;50.792;4.352;2023-02-15T15:28:02;31.45;;;22.02;;
22468;SDS011;11401;50.792;4.352;2023-02-15T15:32:59;36.08;;;21.85;;
22468;SDS011;11401;50.792;4.352;2023-02-15T15:49:58;39.70;;;25.27;;
22468;SDS011;11401;50.792;4.352;2023-02-15T15:52:26;48.15;;;25.65;;
22468;SDS011;11401;50.792;4.352;2023-02-15T15:54:55;40.42;;;23.38;;
22468;SDS011;11401;50.792;4.352;2023-02-15T15:57:40;37.05;;;24.02;;
22468;SDS011;11401;50.792;4.352;2023-02-15T16:00:27;38.20;;;23.65;;
22468;SDS011;11401;50.792;4.352;2023-02-15T16:02:57;46.88;;;24.88;;
22468;SDS011;11401;50.792;4.352;2023-02-15T16:05:24;45.50;;;24.75;;
22468;SDS011;11401;50.792;4.352;2023-02-15T16:07:51;41.53;;;26.10;;
22468;SDS011;11401;50.792;4.352;2023-02-15T16:10:25;37.67;;;22.83;;
22468;SDS011;11401;50.792;4.352;2023-02-15T16:12:54;38.60;;;23.35;;
22468;SDS011;11401;50.792;4.352;2023-02-15T16:15:22;41.97;;;24.63;;
22468;SDS011;11401;50.792;4.352;2023-02-15T16:18:00;42.60;;;24.65;;
22468;SDS011;11401;50.792;4.352;2023-02-15T16:20:31;37.50;;;24.50;;
22468;SDS011;11401;50.792;4.352;2023-02-15T16:28:48;51.75;;;27.58;;
22468;SDS011;11401;50.792;4.352;2023-02-15T16:31:19;40.30;;;25.42;;
22468;SDS011;11401;50.792;4.352;2023-02-15T16:33:51;46.60;;;26.33;;
22468;SDS011;11401;50.792;4.352;2023-02-15T16:41:15;47.85;;;27.70;;
22468;SDS011;11401;50.792;4.352;2023-02-15T16:43:43;45.13;;;27.23;;
22468;SDS011;11401;50.792;4.352;2023-02-15T16:46:18;41.78;;;23.90;;
22468;SDS011;11401;50.792;4.352;2023-02-15T16:48:54;45.45;;;27.10;;
22468;SDS011;11401;50.792;4.352;2023-02-15T16:51:26;46.97;;;25.67;;
22468;SDS011;11401;50.792;4.352;2023-02-15T16:53:55;44.22;;;25.75;;
22468;SDS011;11401;50.792;4.352;2023-02-15T16:56:27;47.20;;;25.85;;
22468;SDS011;11401;50.792;4.352;2023-02-15T16:58:57;42.53;;;26.77;;
22468;SDS011;11401;50.792;4.352;2023-02-15T17:01:26;57.28;;;27.60;;
22468;SDS011;11401;50.792;4.352;2023-02-15T17:04:12;48.20;;;26.10;;
22468;SDS011;11401;50.792;4.352;2023-02-15T17:07:03;47.83;;;26.15;;
22468;SDS011;11401;50.792;4.352;2023-02-15T17:09:31;60.22;;;27.05;;
22468;SDS011;11401;50.792;4.352;2023-02-15T17:11:59;45.85;;;26.30;;
22468;SDS011;11401;50.792;4.352;2023-02-15T17:14:29;51.30;;;28.23;;
22468;SDS011;11401;50.792;4.352;2023-02-15T17:17:06;43.05;;;25.27;;
22468;SDS011;11401;50.792;4.352;2023-02-15T17:19:44;44.60;;;26.48;;
22468;SDS011;11401;50.792;4.352;2023-02-15T17:22:22;48.25;;;27.45;;
22468;SDS011;11401;50.792;4.352;2023-02-15T17:24:57;49.67;;;26.05;;
22468;SDS011;11401;50.792;4.352;2023-02-15T17:27:26;43.13;;;26.67;;
22468;SDS011;11401;50.792;4.352;2023-02-15T17:29:58;45.08;;;26.67;;
22468;SDS011;11401;50.792;4.352;2023-02-15T17:32:28;51.75;;;28.35;;
22468;SDS011;11401;50.792;4.352;2023-02-15T17:42:54;43.95;;;28.52;;
22468;SDS011;11401;50.792;4.352;2023-02-15T17:45:22;43.10;;;23.23;;
22468;SDS011;11401;50.792;4.352;2023-02-15T17:47:52;42.97;;;24.83;;
22468;SDS011;11401;50.792;4.352;2023-02-15T17:50:21;43.20;;;26.75;;
22468;SDS011;11401;50.792;4.352;2023-02-15T17:52:50;42.97;;;26.02;;
22468;SDS011;11401;50.792;4.352;2023-02-15T17:55:19;47.13;;;26.65;;
22468;SDS011;11401;50.792;4.352;2023-02-15T17:58:07;40.50;;;24.23;;
22468;SDS011;11401;50.792;4.352;2023-02-15T18:00:43;41.25;;;23.40;;
22468;SDS011;11401;50.792;4.352;2023-02-15T18:03:39;42.30;;;24.40;;
22468;SDS011;11401;50.792;4.352;2023-02-15T18:06:30;42.03;;;23.60;;
22468;SDS011;11401;50.792;4.352;2023-02-15T18:09:17;39.72;;;26.02;;
22468;SDS011;11401;50.792;4.352;2023-02-15T18:12:17;39.42;;;25.10;;
22468;SDS011;11401;50.792;4.352;2023-02-15T18:14:46;41.53;;;27.27;;